createdAt,value
2022-10-15T00:00:59.357Z,13.83
2022-10-15T00:01:59.261Z,13.86
2022-10-15T00:02:59.201Z,13.89
2022-10-15T00:03:59.160Z,13.83
2022-10-15T00:04:59.095Z,13.89
2022-10-15T00:05:59.039Z,13.79
2022-10-15T00:06:58.986Z,13.87
2022-10-15T00:07:58.932Z,13.78
2022-10-15T00:08:58.974Z,13.79
2022-10-15T00:09:58.831Z,13.81
2022-10-15T00:10:58.784Z,13.81
2022-10-15T00:11:58.732Z,13.79
2022-10-15T00:12:58.730Z,13.81
2022-10-15T00:13:58.619Z,13.86
2022-10-15T00:14:58.585Z,13.86
2022-10-15T00:15:58.523Z,13.86
2022-10-15T00:16:58.466Z,13.71
2022-10-15T00:17:58.407Z,13.75
2022-10-15T00:18:58.355Z,13.79
2022-10-15T00:19:58.337Z,13.75
2022-10-15T00:20:58.250Z,13.83
2022-10-15T00:21:58.212Z,13.74
2022-10-15T00:22:58.148Z,13.79
2022-10-15T00:23:58.109Z,13.78
2022-10-15T00:24:58.043Z,13.72
2022-10-15T00:25:57.992Z,13.75
2022-10-15T00:26:57.935Z,13.75
2022-10-15T00:27:57.898Z,13.71
2022-10-15T00:28:57.913Z,13.79
2022-10-15T00:29:57.775Z,13.79
2022-10-15T00:30:57.759Z,13.75
2022-10-15T00:31:57.690Z,13.79
2022-10-15T00:32:57.625Z,13.77
2022-10-15T00:33:57.626Z,13.72
2022-10-15T00:34:57.515Z,13.78
2022-10-15T00:35:57.458Z,13.75
2022-10-15T00:36:57.413Z,13.77
2022-10-15T00:37:57.378Z,13.75
2022-10-15T00:38:57.298Z,13.74
2022-10-15T00:39:57.302Z,13.75
2022-10-15T00:40:57.195Z,13.72
2022-10-15T00:41:57.141Z,13.77
2022-10-15T00:42:57.116Z,13.77
2022-10-15T00:43:57.035Z,13.75
2022-10-15T00:44:57.071Z,13.81
2022-10-15T00:45:56.935Z,13.78
2022-10-15T00:46:56.882Z,13.77
2022-10-15T00:47:56.827Z,13.81
2022-10-15T00:48:56.837Z,13.75
2022-10-15T00:49:56.723Z,13.78
2022-10-15T00:50:56.668Z,13.72
2022-10-15T00:51:56.619Z,13.77
2022-10-15T00:52:56.584Z,13.78
2022-10-15T00:53:56.515Z,13.77
2022-10-15T00:54:56.460Z,13.77
2022-10-15T00:55:56.407Z,13.75
2022-10-15T00:56:56.360Z,13.74
2022-10-15T00:57:56.320Z,13.81
2022-10-15T00:58:56.293Z,13.79
2022-10-15T00:59:56.197Z,13.78
2022-10-15T01:00:56.241Z,13.71
2022-10-15T01:01:56.093Z,13.72
2022-10-15T01:02:56.072Z,13.75
2022-10-15T01:03:55.995Z,13.78
2022-10-15T01:04:55.947Z,13.78
2022-10-15T01:05:55.907Z,13.78
2022-10-15T01:06:55.833Z,13.81
2022-10-15T01:07:55.784Z,13.78
2022-10-15T01:08:55.722Z,13.72
2022-10-15T01:09:55.689Z,13.79
2022-10-15T01:10:55.618Z,13.78
2022-10-15T01:11:55.566Z,13.77
2022-10-15T01:12:55.514Z,13.78
2022-10-15T01:13:55.458Z,13.81
2022-10-15T01:14:55.429Z,13.78
2022-10-15T01:15:55.359Z,13.77
2022-10-15T01:16:55.303Z,13.74
2022-10-15T01:17:55.251Z,13.77
2022-10-15T01:18:55.202Z,13.78
2022-10-15T01:19:55.165Z,13.77
2022-10-15T01:20:55.094Z,13.78
2022-10-15T01:21:55.043Z,13.75
2022-10-15T01:22:54.986Z,13.74
2022-10-15T01:23:54.932Z,13.78
2022-10-15T01:24:54.899Z,13.75
2022-10-15T01:25:54.848Z,13.78
2022-10-15T01:26:54.775Z,13.78
2022-10-15T01:27:54.724Z,13.78
2022-10-15T01:28:54.718Z,13.78
2022-10-15T01:29:54.640Z,13.75
2022-10-15T01:30:54.563Z,13.74
2022-10-15T01:31:54.511Z,13.81
2022-10-15T01:32:54.491Z,13.78
2022-10-15T01:33:54.408Z,13.78
2022-10-15T01:34:54.373Z,13.77
2022-10-15T01:35:54.298Z,13.77
2022-10-15T01:36:54.255Z,13.78
2022-10-15T01:37:54.200Z,13.75
2022-10-15T01:38:54.911Z,13.78
2022-10-15T01:39:54.093Z,13.75
2022-10-15T01:40:54.056Z,13.79
2022-10-15T01:41:53.991Z,13.77
2022-10-15T01:42:53.935Z,13.75
2022-10-15T01:43:53.885Z,13.79
2022-10-15T01:44:53.831Z,13.72
2022-10-15T01:45:53.795Z,13.71
2022-10-15T01:46:53.725Z,13.75
2022-10-15T01:47:53.666Z,13.74
2022-10-15T01:48:53.621Z,13.79
2022-10-15T01:49:53.579Z,13.75
2022-10-15T01:50:53.530Z,13.72
2022-10-15T01:51:53.457Z,13.78
2022-10-15T01:52:53.408Z,13.78
2022-10-15T01:53:53.355Z,13.75
2022-10-15T01:54:53.304Z,13.71
2022-10-15T01:55:53.276Z,13.79
2022-10-15T01:56:53.204Z,13.77
2022-10-15T01:57:53.144Z,13.79
2022-10-15T01:58:53.118Z,13.75
2022-10-15T01:59:53.039Z,13.75
2022-10-15T02:00:53.048Z,13.77
2022-10-15T02:01:55.009Z,13.79
2022-10-15T02:02:52.886Z,13.72
2022-10-15T02:03:52.838Z,13.78
2022-10-15T02:04:52.778Z,13.74
2022-10-15T02:05:52.728Z,13.74
2022-10-15T02:06:52.670Z,13.74
2022-10-15T02:07:52.636Z,13.72
2022-10-15T02:08:52.568Z,13.77
2022-10-15T02:09:52.513Z,13.71
2022-10-15T02:10:52.506Z,13.74
2022-10-15T02:11:52.409Z,13.75
2022-10-15T02:12:52.356Z,13.70
2022-10-15T02:13:52.306Z,13.75
2022-10-15T02:14:52.250Z,13.83
2022-10-15T02:15:52.212Z,13.72
2022-10-15T02:16:52.150Z,13.74
2022-10-15T02:17:52.093Z,13.72
2022-10-15T02:18:52.046Z,13.72
2022-10-15T02:19:52.077Z,13.71
2022-10-15T02:20:51.957Z,13.72
2022-10-15T02:21:51.885Z,13.72
2022-10-15T02:22:51.830Z,13.72
2022-10-15T02:23:51.780Z,13.72
2022-10-15T02:24:54.684Z,13.74
2022-10-15T02:25:51.692Z,13.75
2022-10-15T02:26:51.645Z,13.74
2022-10-15T02:27:51.564Z,13.75
2022-10-15T02:28:51.555Z,13.71
2022-10-15T02:29:51.464Z,13.70
2022-10-15T02:30:51.418Z,13.74
2022-10-15T02:31:51.376Z,13.71
2022-10-15T02:32:51.303Z,13.67
2022-10-15T02:33:51.271Z,13.71
2022-10-15T02:34:51.209Z,13.68
2022-10-15T02:35:51.149Z,13.77
2022-10-15T02:36:51.104Z,13.72
2022-10-15T02:37:51.043Z,13.79
2022-10-15T02:38:51.005Z,13.72
2022-10-15T02:39:50.937Z,13.65
2022-10-15T02:40:50.886Z,13.65
2022-10-15T02:41:50.836Z,13.72
2022-10-15T02:42:50.788Z,13.67
2022-10-15T02:43:50.743Z,13.68
2022-10-15T02:44:50.687Z,13.75
2022-10-15T02:45:50.621Z,13.72
2022-10-15T02:46:50.565Z,13.71
2022-10-15T02:47:50.516Z,13.72
2022-10-15T02:48:50.471Z,13.68
2022-10-15T02:49:50.424Z,13.71
2022-10-15T02:50:50.358Z,13.70
2022-10-15T02:51:50.319Z,13.71
2022-10-15T02:52:50.252Z,13.70
2022-10-15T02:53:50.207Z,13.65
2022-10-15T02:54:50.146Z,13.72
2022-10-15T02:55:50.118Z,13.68
2022-10-15T02:56:50.041Z,13.72
2022-10-15T02:57:49.995Z,13.70
2022-10-15T02:58:49.942Z,13.68
2022-10-15T02:59:49.901Z,13.72
2022-10-15T03:00:49.880Z,13.77
2022-10-15T03:01:49.783Z,13.77
2022-10-15T03:02:49.724Z,13.79
2022-10-15T03:03:49.677Z,13.74
2022-10-15T03:04:49.651Z,13.77
2022-10-15T03:05:49.589Z,13.77
2022-10-15T03:06:49.520Z,13.77
2022-10-15T03:07:49.468Z,13.75
2022-10-15T03:08:49.417Z,13.75
2022-10-15T03:09:49.375Z,13.74
2022-10-15T03:10:49.332Z,13.74
2022-10-15T03:11:49.256Z,13.77
2022-10-15T03:12:49.216Z,13.75
2022-10-15T03:13:49.153Z,13.75
2022-10-15T03:14:49.098Z,13.78
2022-10-15T03:15:49.064Z,13.83
2022-10-15T03:16:48.997Z,13.81
2022-10-15T03:17:48.964Z,13.78
2022-10-15T03:18:48.914Z,13.81
2022-10-15T03:19:48.836Z,13.74
2022-10-15T03:20:48.789Z,13.81
2022-10-15T03:21:48.739Z,13.85
2022-10-15T03:22:48.685Z,13.89
2022-10-15T03:23:48.656Z,13.77
2022-10-15T03:24:48.583Z,13.83
2022-10-15T03:25:48.533Z,13.83
2022-10-15T03:26:48.489Z,13.83
2022-10-15T03:27:48.427Z,13.81
2022-10-15T03:28:48.513Z,13.83
2022-10-15T03:29:48.321Z,13.79
2022-10-15T03:30:48.268Z,13.83
2022-10-15T03:31:48.231Z,13.79
2022-10-15T03:32:48.395Z,13.85
2022-10-15T03:33:48.113Z,13.75
2022-10-15T03:34:48.066Z,13.83
2022-10-15T03:35:48.010Z,13.83
2022-10-15T03:36:47.972Z,13.81
2022-10-15T03:37:47.901Z,13.81
2022-10-15T03:38:47.851Z,13.75
2022-10-15T03:39:47.819Z,13.86
2022-10-15T03:40:47.749Z,13.81
2022-10-15T03:41:47.700Z,13.78
2022-10-15T03:42:47.641Z,13.77
2022-10-15T03:43:47.589Z,13.78
2022-10-15T03:44:47.551Z,13.81
2022-10-15T03:45:47.489Z,13.78
2022-10-15T03:46:47.456Z,13.75
2022-10-15T03:47:47.392Z,13.74
2022-10-15T03:48:47.333Z,13.77
2022-10-15T03:49:47.283Z,13.77
2022-10-15T03:50:47.231Z,13.79
2022-10-15T03:51:47.192Z,13.75
2022-10-15T03:52:47.136Z,13.79
2022-10-15T03:53:47.073Z,13.78
2022-10-15T03:54:47.020Z,13.78
2022-10-15T03:55:46.974Z,13.78
2022-10-15T03:56:46.917Z,13.74
2022-10-15T03:57:46.885Z,13.77
2022-10-15T03:58:46.810Z,13.75
2022-10-15T03:59:46.763Z,13.81
2022-10-15T04:00:46.727Z,13.77
2022-10-15T04:01:46.656Z,13.75
2022-10-15T04:02:46.618Z,13.79
2022-10-15T04:03:46.548Z,13.79
2022-10-15T04:04:46.496Z,13.78
2022-10-15T04:05:48.106Z,13.79
2022-10-15T04:06:46.401Z,13.78
2022-10-15T04:07:46.355Z,13.81
2022-10-15T04:08:46.310Z,13.79
2022-10-15T04:09:46.238Z,13.85
2022-10-15T04:10:46.188Z,13.78
2022-10-15T04:11:46.136Z,13.83
2022-10-15T04:12:46.096Z,13.77
2022-10-15T04:13:46.030Z,13.86
2022-10-15T04:14:45.979Z,13.86
2022-10-15T04:15:45.926Z,13.83
2022-10-15T04:16:45.871Z,13.85
2022-10-15T04:17:45.869Z,13.89
2022-10-15T04:18:45.772Z,13.86
2022-10-15T04:19:45.715Z,13.81
2022-10-15T04:20:45.683Z,13.78
2022-10-15T04:21:45.614Z,13.89
2022-10-15T04:22:45.557Z,13.86
2022-10-15T04:23:45.508Z,13.81
2022-10-15T04:24:45.458Z,13.81
2022-10-15T04:25:45.417Z,13.89
2022-10-15T04:26:45.353Z,13.85
2022-10-15T04:27:45.299Z,13.77
2022-10-15T04:28:45.311Z,13.78
2022-10-15T04:29:45.204Z,13.81
2022-10-15T04:30:45.144Z,13.77
2022-10-15T04:31:45.094Z,13.74
2022-10-15T04:32:45.039Z,13.83
2022-10-15T04:33:44.995Z,13.77
2022-10-15T04:34:44.949Z,13.79
2022-10-15T04:35:44.883Z,13.86
2022-10-15T04:36:44.830Z,13.75
2022-10-15T04:37:44.781Z,13.79
2022-10-15T04:38:44.725Z,13.77
2022-10-15T04:39:44.693Z,13.83
2022-10-15T04:40:44.621Z,13.86
2022-10-15T04:41:44.572Z,13.81
2022-10-15T04:42:44.519Z,13.79
2022-10-15T04:43:44.469Z,13.83
2022-10-15T04:44:44.432Z,13.86
2022-10-15T04:45:44.366Z,13.79
2022-10-15T04:46:44.317Z,13.85
2022-10-15T04:47:44.274Z,13.81
2022-10-15T04:48:44.209Z,13.85
2022-10-15T04:49:53.541Z,13.85
2022-10-15T04:50:44.117Z,13.86
2022-10-15T04:51:44.051Z,13.81
2022-10-15T04:52:44.002Z,13.79
2022-10-15T04:53:43.965Z,13.78
2022-10-15T04:54:43.897Z,13.83
2022-10-15T04:55:43.848Z,13.77
2022-10-15T04:56:43.791Z,13.79
2022-10-15T04:57:43.741Z,13.79
2022-10-15T04:58:43.684Z,13.79
2022-10-15T04:59:43.652Z,13.86
2022-10-15T05:00:43.583Z,13.81
2022-10-15T05:01:43.534Z,13.81
2022-10-15T05:02:43.483Z,13.77
2022-10-15T05:03:45.122Z,13.81
2022-10-15T05:04:43.390Z,13.78
2022-10-15T05:05:43.331Z,13.83
2022-10-15T05:06:43.273Z,13.81
2022-10-15T05:07:43.224Z,13.83
2022-10-15T05:08:43.180Z,13.81
2022-10-15T05:09:46.335Z,13.85
2022-10-15T05:10:43.066Z,13.78
2022-10-15T05:11:43.008Z,13.79
2022-10-15T05:13:42.912Z,13.79
2022-10-15T05:14:42.881Z,13.86
2022-10-15T05:15:42.807Z,13.79
2022-10-15T05:16:42.962Z,13.81
2022-10-15T05:17:42.700Z,13.83
2022-10-15T05:18:42.649Z,13.79
2022-10-15T05:19:42.596Z,13.78
2022-10-15T05:20:42.550Z,13.81
2022-10-15T05:21:42.541Z,13.77
2022-10-15T05:22:42.439Z,13.78
2022-10-15T05:23:42.406Z,13.86
2022-10-15T05:24:42.338Z,13.83
2022-10-15T05:25:42.286Z,13.83
2022-10-15T05:26:42.243Z,13.86
2022-10-15T05:27:42.192Z,13.77
2022-10-15T05:28:42.190Z,13.81
2022-10-15T05:29:42.080Z,13.85
2022-10-15T05:30:42.023Z,13.79
2022-10-15T05:31:41.972Z,13.74
2022-10-15T05:32:41.936Z,13.85
2022-10-15T05:33:41.868Z,13.79
2022-10-15T05:34:41.816Z,13.81
2022-10-15T05:35:41.765Z,13.75
2022-10-15T05:36:41.730Z,13.75
2022-10-15T05:37:41.657Z,13.77
2022-10-15T05:38:41.606Z,13.75
2022-10-15T05:39:41.572Z,13.78
2022-10-15T05:40:41.508Z,13.77
2022-10-15T05:41:41.469Z,13.75
2022-10-15T05:42:41.439Z,13.77
2022-10-15T05:43:41.640Z,13.77
2022-10-15T05:44:41.313Z,13.77
2022-10-15T05:45:41.249Z,13.83
2022-10-15T05:46:41.193Z,13.79
2022-10-15T05:47:41.146Z,13.79
2022-10-15T05:48:41.092Z,13.79
2022-10-15T05:49:41.063Z,13.78
2022-10-15T05:50:40.982Z,13.81
2022-10-15T05:51:40.930Z,13.85
2022-10-15T05:52:40.883Z,13.81
2022-10-15T05:53:40.844Z,13.85
2022-10-15T05:54:40.782Z,13.83
2022-10-15T05:55:40.740Z,13.81
2022-10-15T05:56:40.674Z,13.83
2022-10-15T05:57:40.626Z,13.87
2022-10-15T05:58:40.571Z,13.81
2022-10-15T05:59:40.533Z,13.90
2022-10-15T06:00:40.464Z,13.81
2022-10-15T06:01:40.475Z,13.85
2022-10-15T06:02:40.544Z,13.86
2022-10-15T06:03:40.326Z,13.89
2022-10-15T06:04:40.274Z,13.92
2022-10-15T06:05:40.205Z,13.95
2022-10-15T06:06:40.155Z,14.00
2022-10-15T06:07:40.109Z,13.97
2022-10-15T06:08:40.061Z,13.87
2022-10-15T06:09:40.000Z,13.90
2022-10-15T06:10:39.969Z,13.93
2022-10-15T06:11:39.893Z,13.93
2022-10-15T06:12:39.844Z,13.95
2022-10-15T06:13:39.826Z,13.81
2022-10-15T06:14:39.737Z,13.92
2022-10-15T06:15:39.702Z,13.93
2022-10-15T06:16:39.637Z,13.96
2022-10-15T06:17:39.581Z,13.87
2022-10-15T06:18:39.546Z,13.92
2022-10-15T06:19:39.482Z,13.95
2022-10-15T06:20:39.428Z,13.93
2022-10-15T06:21:39.376Z,13.90
2022-10-15T06:22:39.344Z,13.87
2022-10-15T06:23:39.287Z,13.90
2022-10-15T06:24:39.218Z,13.93
2022-10-15T06:25:39.186Z,13.93
2022-10-15T06:26:39.140Z,13.96
2022-10-15T06:27:39.059Z,13.95
2022-10-15T06:28:39.108Z,13.95
2022-10-15T06:29:38.957Z,13.93
2022-10-15T06:30:38.907Z,13.90
2022-10-15T06:31:38.856Z,13.92
2022-10-15T06:32:38.819Z,13.92
2022-10-15T06:33:38.747Z,13.95
2022-10-15T06:34:38.697Z,13.97
2022-10-15T06:35:38.642Z,13.95
2022-10-15T06:36:38.593Z,13.92
2022-10-15T06:37:38.545Z,13.93
2022-10-15T06:38:38.502Z,13.90
2022-10-15T06:39:38.435Z,13.96
2022-10-15T06:40:38.382Z,13.96
2022-10-15T06:41:38.353Z,13.89
2022-10-15T06:42:38.280Z,13.96
2022-10-15T06:43:38.226Z,13.97
2022-10-15T06:44:38.174Z,13.96
2022-10-15T06:45:38.120Z,13.99
2022-10-15T06:46:38.087Z,14.03
2022-10-15T06:47:38.032Z,13.90
2022-10-15T06:48:37.966Z,14.03
2022-10-15T06:49:37.915Z,14.07
2022-10-15T06:50:37.862Z,14.08
2022-10-15T06:51:37.825Z,14.00
2022-10-15T06:52:37.759Z,14.05
2022-10-15T06:53:37.709Z,13.99
2022-10-15T06:54:37.650Z,14.05
2022-10-15T06:55:37.617Z,14.05
2022-10-15T06:56:37.545Z,14.08
2022-10-15T06:57:37.495Z,14.10
2022-10-15T06:58:37.442Z,14.08
2022-10-15T06:59:40.432Z,14.04
2022-10-15T07:00:37.360Z,14.05
2022-10-15T07:01:39.946Z,14.12
2022-10-15T07:02:38.020Z,14.10
2022-10-15T07:03:37.192Z,14.03
2022-10-15T07:04:37.131Z,14.08
2022-10-15T07:05:37.081Z,14.07
2022-10-15T07:06:37.045Z,14.14
2022-10-15T07:07:36.976Z,14.11
2022-10-15T07:08:36.930Z,14.10
2022-10-15T07:09:36.868Z,14.12
2022-10-15T07:10:36.815Z,14.14
2022-10-15T07:11:36.767Z,14.18
2022-10-15T07:12:36.731Z,14.17
2022-10-15T07:13:36.661Z,14.12
2022-10-15T07:14:40.071Z,14.08
2022-10-15T07:15:36.555Z,14.17
2022-10-15T07:16:36.504Z,14.22
2022-10-15T07:17:36.463Z,14.20
2022-10-15T07:18:36.416Z,14.20
2022-10-15T07:19:36.350Z,14.20
2022-10-15T07:20:36.297Z,14.20
2022-10-15T07:21:36.244Z,14.23
2022-10-15T07:22:36.190Z,14.23
2022-10-15T07:23:36.156Z,14.26
2022-10-15T07:24:36.086Z,14.20
2022-10-15T07:25:36.040Z,14.25
2022-10-15T07:26:36.025Z,14.25
2022-10-15T07:27:35.950Z,14.29
2022-10-15T07:28:35.908Z,14.26
2022-10-15T07:29:35.827Z,14.36
2022-10-15T07:30:35.799Z,14.30
2022-10-15T07:31:35.770Z,14.32
2022-10-15T07:32:35.678Z,14.33
2022-10-15T07:33:35.619Z,14.41
2022-10-15T07:34:35.578Z,14.35
2022-10-15T07:35:35.532Z,14.36
2022-10-15T07:36:35.466Z,14.45
2022-10-15T07:37:35.425Z,14.43
2022-10-15T07:38:35.378Z,14.36
2022-10-15T07:39:37.788Z,14.36
2022-10-15T07:40:35.258Z,14.37
2022-10-15T07:41:36.030Z,14.55
2022-10-15T07:42:35.152Z,14.48
2022-10-15T07:43:35.101Z,14.53
2022-10-15T07:44:35.070Z,14.50
2022-10-15T07:45:34.995Z,14.55
2022-10-15T07:46:34.945Z,14.43
2022-10-15T07:47:34.907Z,14.55
2022-10-15T07:48:34.840Z,14.44
2022-10-15T07:49:34.804Z,14.54
2022-10-15T07:50:36.344Z,14.62
2022-10-15T07:51:34.817Z,14.58
2022-10-15T07:52:34.630Z,14.66
2022-10-15T07:53:34.595Z,14.68
2022-10-15T07:54:34.659Z,14.62
2022-10-15T07:55:34.476Z,14.68
2022-10-15T07:56:34.425Z,14.66
2022-10-15T07:57:34.374Z,14.66
2022-10-15T07:58:34.337Z,14.60
2022-10-15T07:59:34.281Z,14.66
2022-10-15T08:00:34.235Z,14.63
2022-10-15T08:01:34.192Z,14.60
2022-10-15T08:02:34.133Z,14.62
2022-10-15T08:03:34.104Z,14.65
2022-10-15T08:04:34.008Z,14.65
2022-10-15T08:05:33.959Z,14.66
2022-10-15T08:06:33.908Z,14.66
2022-10-15T08:07:33.874Z,14.65
2022-10-15T08:08:33.817Z,14.65
2022-10-15T08:09:33.787Z,14.59
2022-10-15T08:10:33.702Z,14.59
2022-10-15T08:11:33.654Z,14.66
2022-10-15T08:12:33.618Z,14.66
2022-10-15T08:13:33.547Z,14.68
2022-10-15T08:14:33.490Z,14.66
2022-10-15T08:15:33.443Z,14.81
2022-10-15T08:16:33.404Z,14.82
2022-10-15T08:17:33.336Z,14.81
2022-10-15T08:18:33.308Z,14.77
2022-10-15T08:19:33.234Z,14.79
2022-10-15T08:20:33.180Z,14.84
2022-10-15T08:21:33.133Z,14.86
2022-10-15T08:22:33.076Z,14.77
2022-10-15T08:23:33.029Z,14.69
2022-10-15T08:24:32.994Z,14.68
2022-10-15T08:25:32.922Z,14.70
2022-10-15T08:26:32.969Z,14.62
2022-10-15T08:27:32.819Z,14.66
2022-10-15T08:28:32.814Z,14.72
2022-10-15T08:29:32.732Z,14.68
2022-10-15T08:30:32.668Z,14.69
2022-10-15T08:31:32.630Z,14.77
2022-10-15T08:32:32.568Z,14.70
2022-10-15T08:33:32.511Z,14.72
2022-10-15T08:34:32.485Z,14.73
2022-10-15T08:35:32.411Z,14.63
2022-10-15T08:36:32.357Z,14.70
2022-10-15T08:37:32.321Z,14.77
2022-10-15T08:38:32.276Z,14.78
2022-10-15T08:39:32.208Z,14.72
2022-10-15T08:40:32.150Z,14.72
2022-10-15T08:41:32.120Z,14.81
2022-10-15T08:42:32.046Z,14.82
2022-10-15T08:43:31.992Z,14.82
2022-10-15T08:44:31.940Z,14.84
2022-10-15T08:45:31.893Z,14.70
2022-10-15T08:46:31.851Z,14.78
2022-10-15T08:47:31.787Z,14.82
2022-10-15T08:48:31.734Z,14.81
2022-10-15T08:49:31.705Z,14.73
2022-10-15T08:50:31.641Z,14.81
2022-10-15T08:51:31.578Z,14.81
2022-10-15T08:52:31.531Z,14.88
2022-10-15T08:53:31.474Z,14.77
2022-10-15T08:54:31.424Z,14.86
2022-10-15T08:55:31.388Z,14.82
2022-10-15T08:56:31.315Z,14.88
2022-10-15T08:57:31.285Z,14.89
2022-10-15T08:58:31.218Z,14.82
2022-10-15T08:59:31.182Z,14.86
2022-10-15T09:00:31.152Z,14.85
2022-10-15T09:01:31.063Z,14.84
2022-10-15T09:02:31.008Z,14.92
2022-10-15T09:03:30.959Z,15.02
2022-10-15T09:04:30.910Z,14.97
2022-10-15T09:05:30.870Z,15.02
2022-10-15T09:06:30.817Z,15.04
2022-10-15T09:07:30.773Z,15.00
2022-10-15T09:08:30.696Z,15.06
2022-10-15T09:09:30.641Z,15.04
2022-10-15T09:10:30.595Z,15.02
2022-10-15T09:11:30.543Z,14.97
2022-10-15T09:12:30.533Z,15.00
2022-10-15T09:13:30.487Z,15.03
2022-10-15T09:14:30.384Z,15.03
2022-10-15T09:15:30.356Z,15.02
2022-10-15T09:16:30.286Z,14.96
2022-10-15T09:17:30.235Z,15.00
2022-10-15T09:18:30.180Z,15.06
2022-10-15T09:19:30.137Z,14.97
2022-10-15T09:20:30.103Z,15.09
2022-10-15T09:21:30.026Z,15.00
2022-10-15T09:22:29.978Z,15.09
2022-10-15T09:23:29.918Z,15.00
2022-10-15T09:24:29.870Z,15.04
2022-10-15T09:25:31.981Z,15.00
2022-10-15T09:26:29.771Z,15.07
2022-10-15T09:27:29.715Z,15.15
2022-10-15T09:28:29.747Z,15.14
2022-10-15T09:29:29.612Z,15.14
2022-10-15T09:30:29.559Z,15.17
2022-10-15T09:31:29.526Z,15.15
2022-10-15T09:32:29.453Z,15.15
2022-10-15T09:33:29.421Z,15.19
2022-10-15T09:34:29.350Z,15.14
2022-10-15T09:35:29.299Z,15.09
2022-10-15T09:36:29.269Z,15.14
2022-10-15T09:37:29.357Z,15.17
2022-10-15T09:38:29.146Z,15.25
2022-10-15T09:39:29.156Z,15.25
2022-10-15T09:40:29.228Z,15.19
2022-10-15T09:41:28.989Z,15.27
2022-10-15T09:42:29.568Z,15.18
2022-10-15T09:43:28.890Z,15.17
2022-10-15T09:44:28.932Z,15.21
2022-10-15T09:45:28.801Z,15.18
2022-10-15T09:46:28.742Z,15.21
2022-10-15T09:47:28.694Z,15.24
2022-10-15T09:48:28.627Z,15.25
2022-10-15T09:49:32.518Z,15.33
2022-10-15T09:50:28.541Z,15.35
2022-10-15T09:51:28.474Z,15.36
2022-10-15T09:52:28.431Z,15.29
2022-10-15T09:53:28.418Z,15.43
2022-10-15T09:54:28.345Z,15.35
2022-10-15T09:55:28.269Z,15.35
2022-10-15T09:56:28.214Z,15.37
2022-10-15T09:57:28.163Z,15.49
2022-10-15T09:58:28.133Z,15.52
2022-10-15T09:59:28.248Z,15.42
2022-10-15T10:00:28.012Z,15.40
2022-10-15T10:01:27.969Z,15.44
2022-10-15T10:02:28.523Z,15.49
2022-10-15T10:03:27.871Z,15.43
2022-10-15T10:04:27.807Z,15.49
2022-10-15T10:05:27.769Z,15.37
2022-10-15T10:06:27.702Z,15.51
2022-10-15T10:07:27.649Z,15.54
2022-10-15T10:08:27.600Z,15.44
2022-10-15T10:09:27.550Z,15.44
2022-10-15T10:10:27.518Z,15.47
2022-10-15T10:11:27.446Z,15.61
2022-10-15T10:12:27.393Z,15.47
2022-10-15T10:13:27.347Z,15.44
2022-10-15T10:14:27.291Z,15.44
2022-10-15T10:15:27.258Z,15.46
2022-10-15T10:16:27.196Z,15.49
2022-10-15T10:17:27.142Z,15.52
2022-10-15T10:18:27.083Z,15.61
2022-10-15T10:19:27.033Z,15.59
2022-10-15T10:20:26.999Z,15.59
2022-10-15T10:21:26.930Z,15.61
2022-10-15T10:22:26.951Z,15.57
2022-10-15T10:23:26.844Z,15.64
2022-10-15T10:24:26.782Z,15.61
2022-10-15T10:25:26.740Z,15.57
2022-10-15T10:26:26.695Z,15.62
2022-10-15T10:27:26.924Z,15.68
2022-10-15T10:28:26.605Z,15.75
2022-10-15T10:29:33.935Z,15.65
2022-10-15T10:30:26.467Z,15.76
2022-10-15T10:31:26.504Z,15.76
2022-10-15T10:32:26.368Z,15.80
2022-10-15T10:33:26.315Z,15.72
2022-10-15T10:34:26.262Z,15.77
2022-10-15T10:35:26.227Z,15.62
2022-10-15T10:36:26.192Z,15.70
2022-10-15T10:37:26.599Z,15.68
2022-10-15T10:38:26.076Z,15.68
2022-10-15T10:39:26.014Z,15.75
2022-10-15T10:40:25.956Z,15.82
2022-10-15T10:41:25.988Z,15.79
2022-10-15T10:42:25.870Z,15.83
2022-10-15T10:43:25.804Z,15.83
2022-10-15T10:44:25.753Z,15.88
2022-10-15T10:46:25.666Z,15.90
2022-10-15T10:47:25.913Z,15.91
2022-10-15T10:48:25.547Z,15.91
2022-10-15T10:49:25.496Z,15.92
2022-10-15T10:50:25.443Z,15.91
2022-10-15T10:51:25.409Z,15.97
2022-10-15T10:52:25.350Z,15.98
2022-10-15T10:53:25.301Z,16.04
2022-10-15T10:54:25.242Z,16.04
2022-10-15T10:55:25.224Z,16.01
2022-10-15T10:56:25.143Z,16.20
2022-10-15T10:57:25.405Z,16.20
2022-10-15T10:58:27.135Z,16.13
2022-10-15T10:59:25.004Z,16.17
2022-10-15T11:00:24.936Z,16.20
2022-10-15T11:01:24.937Z,16.26
2022-10-15T11:02:24.833Z,16.20
2022-10-15T11:03:24.780Z,16.10
2022-10-15T11:04:24.744Z,16.02
2022-10-15T11:05:24.680Z,16.05
2022-10-15T11:06:24.627Z,15.98
2022-10-15T11:07:24.896Z,15.97
2022-10-15T11:08:24.539Z,16.05
2022-10-15T11:09:24.476Z,16.05
2022-10-15T11:10:24.430Z,16.04
2022-10-15T11:11:24.373Z,16.17
2022-10-15T11:12:24.343Z,16.13
2022-10-15T11:13:26.382Z,16.17
2022-10-15T11:14:24.223Z,16.16
2022-10-15T11:15:24.174Z,16.16
2022-10-15T11:16:24.119Z,16.15
2022-10-15T11:17:24.363Z,16.26
2022-10-15T11:18:24.014Z,16.26
2022-10-15T11:19:50.751Z,16.23
2022-10-15T11:20:48.318Z,16.17
2022-10-15T11:21:23.865Z,16.12
2022-10-15T11:22:23.830Z,16.04
2022-10-15T11:23:26.557Z,16.13
2022-10-15T11:24:23.758Z,16.17
2022-10-15T11:25:23.661Z,16.17
2022-10-15T11:26:23.606Z,16.20
2022-10-15T11:27:23.965Z,16.17
2022-10-15T11:28:23.572Z,16.12
2022-10-15T11:29:23.456Z,16.15
2022-10-15T11:30:23.404Z,16.20
2022-10-15T11:32:25.663Z,16.09
2022-10-15T11:33:23.402Z,16.12
2022-10-15T11:34:23.203Z,16.05
2022-10-15T11:35:40.872Z,16.00
2022-10-15T11:36:23.096Z,16.04
2022-10-15T11:37:23.048Z,16.00
2022-10-15T11:38:23.010Z,16.00
2022-10-15T11:39:22.947Z,16.02
2022-10-15T11:40:22.953Z,16.04
2022-10-15T11:41:22.861Z,15.98
2022-10-15T11:42:23.056Z,15.98
2022-10-15T11:43:22.739Z,15.97
2022-10-15T11:44:22.691Z,16.02
2022-10-15T11:45:22.643Z,15.95
2022-10-15T11:46:22.599Z,16.00
2022-10-15T11:47:22.550Z,15.92
2022-10-15T11:48:22.489Z,15.90
2022-10-15T11:49:22.478Z,15.98
2022-10-15T11:50:22.383Z,15.95
2022-10-15T11:51:22.350Z,15.91
2022-10-15T11:52:22.581Z,15.91
2022-10-15T11:53:22.230Z,15.95
2022-10-15T11:54:22.182Z,15.97
2022-10-15T11:55:22.129Z,15.95
2022-10-15T11:56:22.097Z,16.05
2022-10-15T11:57:22.037Z,16.01
2022-10-15T11:58:21.979Z,16.04
2022-10-15T11:59:21.924Z,16.05
2022-10-15T12:00:22.666Z,16.12
2022-10-15T12:01:21.835Z,16.02
2022-10-15T12:02:21.935Z,16.12
2022-10-15T12:03:21.791Z,16.12
2022-10-15T12:04:21.707Z,16.13
2022-10-15T12:05:21.614Z,16.21
2022-10-15T12:06:21.570Z,16.21
2022-10-15T12:07:21.514Z,16.17
2022-10-15T12:08:21.466Z,16.26
2022-10-15T12:09:21.433Z,16.24
2022-10-15T12:10:21.361Z,16.15
2022-10-15T12:11:21.310Z,16.16
2022-10-15T12:12:21.591Z,16.17
2022-10-15T12:13:21.204Z,16.26
2022-10-15T12:14:21.158Z,16.28
2022-10-15T12:15:21.119Z,16.32
2022-10-15T12:16:21.057Z,16.16
2022-10-15T12:17:21.003Z,16.24
2022-10-15T12:18:20.952Z,16.26
2022-10-15T12:19:20.971Z,16.26
2022-10-15T12:20:20.851Z,16.13
2022-10-15T12:21:20.798Z,16.20
2022-10-15T12:22:20.773Z,16.15
2022-10-15T12:23:20.698Z,16.20
2022-10-15T12:24:20.665Z,16.17
2022-10-15T12:25:20.598Z,16.23
2022-10-15T12:26:20.548Z,16.12
2022-10-15T12:27:20.509Z,16.15
2022-10-15T12:28:20.499Z,16.17
2022-10-15T12:29:20.406Z,16.13
2022-10-15T12:30:20.340Z,16.12
2022-10-15T12:31:20.293Z,16.12
2022-10-15T12:32:20.236Z,16.15
2022-10-15T12:33:20.185Z,16.05
2022-10-15T12:34:20.155Z,16.12
2022-10-15T12:35:20.085Z,16.15
2022-10-15T12:36:20.117Z,16.15
2022-10-15T12:37:20.035Z,16.17
2022-10-15T12:38:19.934Z,16.20
2022-10-15T12:39:28.114Z,16.05
2022-10-15T12:40:19.830Z,16.20
2022-10-15T12:41:21.621Z,16.24
2022-10-15T12:42:19.750Z,16.21
2022-10-15T12:43:19.677Z,16.23
2022-10-15T12:44:19.683Z,16.13
2022-10-15T12:45:19.591Z,16.17
2022-10-15T12:46:19.537Z,16.12
2022-10-15T12:47:19.470Z,16.21
2022-10-15T12:48:19.424Z,16.24
2022-10-15T12:49:19.368Z,16.16
2022-10-15T12:50:19.319Z,16.21
2022-10-15T12:51:19.284Z,16.28
2022-10-15T12:52:19.258Z,16.17
2022-10-15T12:53:19.170Z,16.17
2022-10-15T12:54:19.115Z,16.12
2022-10-15T12:55:19.065Z,16.24